createdAt,value
2018-03-29T00:00:02.609Z,803.5
2018-03-29T00:00:06.612Z,803.5
2018-03-29T00:00:10.829Z,803.55
2018-03-29T00:00:15.036Z,803.53
2018-03-29T00:00:19.246Z,803.5
2018-03-29T00:00:23.240Z,803.44
2018-03-29T00:00:27.356Z,803.48
2018-03-29T00:00:31.572Z,803.5
2018-03-29T00:00:35.784Z,803.46
2018-03-29T00:00:39.889Z,803.45
2018-03-29T00:00:43.988Z,803.44
2018-03-29T00:00:47.979Z,803.45
2018-03-29T00:00:51.974Z,803.41
2018-03-29T00:00:56.071Z,803.41
2018-03-29T00:01:00.276Z,803.48
2018-03-29T00:01:04.590Z,803.46
2018-03-29T00:01:08.808Z,803.49
2018-03-29T00:01:12.913Z,803.45
2018-03-29T00:01:17.240Z,803.48
2018-03-29T00:01:21.447Z,803.43
2018-03-29T00:01:25.545Z,803.48
2018-03-29T00:01:29.655Z,803.47
2018-03-29T00:01:33.897Z,803.48
2018-03-29T00:01:38.235Z,803.49
2018-03-29T00:01:42.342Z,803.53
2018-03-29T00:01:46.451Z,803.53
2018-03-29T00:01:50.445Z,803.52
2018-03-29T00:01:54.659Z,803.51
2018-03-29T00:01:58.753Z,803.52
2018-03-29T00:02:03.156Z,803.54
2018-03-29T00:02:07.263Z,803.51
2018-03-29T00:02:11.363Z,803.53
2018-03-29T00:02:15.461Z,803.51
2018-03-29T00:02:19.671Z,803.53
2018-03-29T00:02:23.881Z,803.51
2018-03-29T00:02:27.980Z,803.5
2018-03-29T00:02:32.186Z,803.51
2018-03-29T00:02:36.295Z,803.53
2018-03-29T00:02:40.507Z,803.48
2018-03-29T00:02:44.606Z,803.52
2018-03-29T00:02:48.814Z,803.55
2018-03-29T00:02:53.142Z,803.5
2018-03-29T00:02:57.456Z,803.57
2018-03-29T00:03:01.668Z,803.54
2018-03-29T00:03:05.872Z,803.54
2018-03-29T00:03:09.971Z,803.56
2018-03-29T00:03:14.309Z,803.5
2018-03-29T00:03:18.519Z,803.52
2018-03-29T00:03:22.294Z,803.53
2018-03-29T00:03:26.175Z,803.53
2018-03-29T00:03:29.950Z,803.57
2018-03-29T00:03:34.156Z,803.49
2018-03-29T00:03:38.079Z,803.5
2018-03-29T00:03:42.183Z,803.49
2018-03-29T00:03:46.280Z,803.51
2018-03-29T00:03:50.597Z,803.49
2018-03-29T00:03:54.493Z,803.56
2018-03-29T00:03:58.482Z,803.52
2018-03-29T00:04:02.413Z,803.55
2018-03-29T00:04:06.614Z,803.57
2018-03-29T00:04:10.496Z,803.54
2018-03-29T00:04:14.598Z,803.54
2018-03-29T00:04:18.590Z,803.53
2018-03-29T00:04:22.694Z,803.53
2018-03-29T00:04:26.587Z,803.51
2018-03-29T00:04:30.794Z,803.49
2018-03-29T00:04:35.003Z,803.47
2018-03-29T00:04:39.209Z,803.52
2018-03-29T00:04:43.093Z,803.54
2018-03-29T00:04:47.101Z,803.56
2018-03-29T00:04:50.768Z,803.56
2018-03-29T00:04:54.651Z,803.54
2018-03-29T00:04:58.537Z,803.55
2018-03-29T00:05:02.541Z,803.52
2018-03-29T00:05:06.542Z,803.55
2018-03-29T00:05:10.426Z,803.54
2018-03-29T00:05:14.207Z,803.53
2018-03-29T00:05:18.441Z,803.56
2018-03-29T00:05:22.216Z,803.58
2018-03-29T00:05:26.531Z,803.55
2018-03-29T00:05:30.632Z,803.51
2018-03-29T00:05:34.948Z,803.58
2018-03-29T00:05:38.942Z,803.6
2018-03-29T00:05:43.254Z,803.57
2018-03-29T00:05:47.248Z,803.57
2018-03-29T00:05:51.457Z,803.58
2018-03-29T00:05:55.808Z,803.55
2018-03-29T00:05:59.802Z,803.58
2018-03-29T00:06:03.943Z,803.56
2018-03-29T00:06:08.159Z,803.56
2018-03-29T00:06:12.259Z,803.55
2018-03-29T00:06:16.470Z,803.55
2018-03-29T00:06:20.576Z,803.58
2018-03-29T00:06:24.565Z,803.56
2018-03-29T00:06:28.668Z,803.57
2018-03-29T00:06:32.660Z,803.55
2018-03-29T00:06:36.976Z,803.54
2018-03-29T00:06:41.236Z,803.54
2018-03-29T00:06:45.572Z,803.56
2018-03-29T00:06:49.676Z,803.57
2018-03-29T00:06:53.672Z,803.54
2018-03-29T00:06:57.674Z,803.49
2018-03-29T00:07:01.668Z,803.51
2018-03-29T00:07:05.559Z,803.52
2018-03-29T00:07:09.765Z,803.55
2018-03-29T00:07:13.767Z,803.57
2018-03-29T00:07:17.866Z,803.57
2018-03-29T00:07:21.968Z,803.55
2018-03-29T00:07:26.071Z,803.55
2018-03-29T00:07:30.170Z,803.58
2018-03-29T00:07:34.373Z,803.58
2018-03-29T00:07:38.271Z,803.56
2018-03-29T00:07:42.372Z,803.57
2018-03-29T00:07:46.600Z,803.58
2018-03-29T00:07:50.587Z,803.54
2018-03-29T00:07:54.691Z,803.59
2018-03-29T00:07:58.957Z,803.55
2018-03-29T00:08:03.111Z,803.53
2018-03-29T00:08:07.096Z,803.57
2018-03-29T00:08:11.421Z,803.54
2018-03-29T00:08:15.518Z,803.53
2018-03-29T00:08:19.624Z,803.57
2018-03-29T00:08:23.725Z,803.55
2018-03-29T00:08:27.725Z,803.55
2018-03-29T00:08:32.041Z,803.52
2018-03-29T00:08:36.144Z,803.54
2018-03-29T00:08:40.145Z,803.51
2018-03-29T00:08:44.136Z,803.53
2018-03-29T00:08:48.127Z,803.48
2018-03-29T00:08:52.122Z,803.5
2018-03-29T00:08:56.116Z,803.51
2018-03-29T00:09:00.004Z,803.47
2018-03-29T00:09:04.464Z,803.46
2018-03-29T00:09:08.339Z,803.48
2018-03-29T00:09:12.554Z,803.48
2018-03-29T00:09:16.652Z,803.47
2018-03-29T00:09:20.861Z,803.47
2018-03-29T00:09:24.859Z,803.47
2018-03-29T00:09:28.630Z,803.48
2018-03-29T00:09:32.633Z,803.46
2018-03-29T00:09:36.733Z,803.46
2018-03-29T00:09:40.833Z,803.48
2018-03-29T00:09:44.826Z,803.47
2018-03-29T00:09:49.044Z,803.4
2018-03-29T00:09:53.042Z,803.43
2018-03-29T00:09:57.040Z,803.46
2018-03-29T00:10:01.150Z,803.45
2018-03-29T00:10:05.132Z,803.46
2018-03-29T00:10:09.127Z,803.46
2018-03-29T00:10:13.379Z,803.44
2018-03-29T00:10:17.554Z,803.42
2018-03-29T00:10:21.663Z,803.44
2018-03-29T00:10:25.659Z,803.48
2018-03-29T00:10:29.764Z,803.44
2018-03-29T00:10:33.762Z,803.45
2018-03-29T00:10:37.973Z,803.44
2018-03-29T00:10:42.177Z,803.45
2018-03-29T00:10:46.164Z,803.48
2018-03-29T00:10:50.372Z,803.47
2018-03-29T00:10:54.579Z,803.47
2018-03-29T00:10:58.573Z,803.46
2018-03-29T00:11:02.905Z,803.45
2018-03-29T00:11:06.683Z,803.47
2018-03-29T00:11:10.681Z,803.46
2018-03-29T00:11:14.779Z,803.49
2018-03-29T00:11:18.892Z,803.47
2018-03-29T00:11:22.993Z,803.42
2018-03-29T00:11:26.989Z,803.41
2018-03-29T00:11:31.205Z,803.43
2018-03-29T00:11:35.530Z,803.44
2018-03-29T00:11:39.763Z,803.43
2018-03-29T00:11:43.866Z,803.43
2018-03-29T00:11:48.090Z,803.42
2018-03-29T00:11:52.310Z,803.42
2018-03-29T00:11:56.407Z,803.4
2018-03-29T00:12:00.617Z,803.42
2018-03-29T00:12:04.722Z,803.38
2018-03-29T00:12:08.723Z,803.4
2018-03-29T00:12:12.933Z,803.41
2018-03-29T00:12:16.924Z,803.42
2018-03-29T00:12:21.249Z,803.41
2018-03-29T00:12:25.362Z,803.44
2018-03-29T00:12:29.575Z,803.44
2018-03-29T00:12:33.681Z,803.43
2018-03-29T00:12:37.890Z,803.42
2018-03-29T00:12:42.209Z,803.43
2018-03-29T00:12:46.307Z,803.39
2018-03-29T00:12:50.631Z,803.43
2018-03-29T00:12:54.732Z,803.41
2018-03-29T00:12:58.937Z,803.46
2018-03-29T00:13:03.039Z,803.46
2018-03-29T00:13:07.033Z,803.43
2018-03-29T00:13:11.134Z,803.46
2018-03-29T00:13:15.124Z,803.44
2018-03-29T00:13:19.223Z,803.45
2018-03-29T00:13:23.114Z,803.38
2018-03-29T00:13:27.217Z,803.47
2018-03-29T00:13:31.427Z,803.39
2018-03-29T00:13:35.528Z,803.43
2018-03-29T00:13:39.630Z,803.39
2018-03-29T00:13:43.733Z,803.45
2018-03-29T00:13:47.832Z,803.41
2018-03-29T00:13:52.042Z,803.39
2018-03-29T00:13:56.246Z,803.4
2018-03-29T00:14:00.449Z,803.39
2018-03-29T00:14:04.820Z,803.4
2018-03-29T00:14:09.040Z,803.41
2018-03-29T00:14:13.031Z,803.48
2018-03-29T00:14:17.242Z,803.45
2018-03-29T00:14:21.338Z,803.44
2018-03-29T00:14:25.657Z,803.47
2018-03-29T00:14:29.647Z,803.45
2018-03-29T00:14:33.643Z,803.47
2018-03-29T00:14:37.747Z,803.46
2018-03-29T00:14:41.740Z,803.48
2018-03-29T00:14:45.957Z,803.44
2018-03-29T00:14:50.270Z,803.46
2018-03-29T00:14:54.534Z,803.46
2018-03-29T00:14:58.686Z,803.45
2018-03-29T00:15:02.575Z,803.44
2018-03-29T00:15:06.792Z,803.45
2018-03-29T00:15:10.902Z,803.38
2018-03-29T00:15:14.998Z,803.4
2018-03-29T00:15:18.992Z,803.38
2018-03-29T00:15:23.198Z,803.38
2018-03-29T00:15:27.189Z,803.38
2018-03-29T00:15:31.292Z,803.38
2018-03-29T00:15:35.285Z,803.37
2018-03-29T00:15:39.268Z,803.4
2018-03-29T00:15:43.474Z,803.42
2018-03-29T00:15:47.579Z,803.41
2018-03-29T00:15:51.676Z,803.4
2018-03-29T00:15:55.562Z,803.39
2018-03-29T00:15:59.768Z,803.39
2018-03-29T00:16:03.769Z,803.36
2018-03-29T00:16:07.973Z,803.36
2018-03-29T00:16:12.296Z,803.35
2018-03-29T00:16:16.607Z,803.38
2018-03-29T00:16:20.485Z,803.38
2018-03-29T00:16:24.591Z,803.37
2018-03-29T00:16:28.902Z,803.37
2018-03-29T00:16:33.117Z,803.41
2018-03-29T00:16:37.322Z,803.34
2018-03-29T00:16:41.656Z,803.37
2018-03-29T00:16:45.860Z,803.36
2018-03-29T00:16:49.956Z,803.35
2018-03-29T00:16:53.950Z,803.34
2018-03-29T00:16:57.947Z,803.34
2018-03-29T00:17:02.201Z,803.36
2018-03-29T00:17:06.191Z,803.35
2018-03-29T00:17:10.182Z,803.39
2018-03-29T00:17:14.201Z,803.37
2018-03-29T00:17:18.091Z,803.32
2018-03-29T00:17:22.130Z,803.37
2018-03-29T00:17:26.450Z,803.3
2018-03-29T00:17:30.665Z,803.29
2018-03-29T00:17:34.998Z,803.32
2018-03-29T00:17:39.332Z,803.3
2018-03-29T00:17:43.605Z,803.32
2018-03-29T00:17:47.875Z,803.37
2018-03-29T00:17:52.202Z,803.34
2018-03-29T00:17:56.214Z,803.38
2018-03-29T00:18:00.424Z,803.38
2018-03-29T00:18:04.623Z,803.35
2018-03-29T00:18:08.721Z,803.35
2018-03-29T00:18:12.979Z,803.38
2018-03-29T00:18:17.194Z,803.38
2018-03-29T00:18:21.406Z,803.35
2018-03-29T00:18:25.617Z,803.36
2018-03-29T00:18:29.625Z,803.37
2018-03-29T00:18:33.624Z,803.36
2018-03-29T00:18:37.830Z,803.36
2018-03-29T00:18:42.040Z,803.34
2018-03-29T00:18:46.031Z,803.34
2018-03-29T00:18:50.237Z,803.35
2018-03-29T00:18:54.444Z,803.34
2018-03-29T00:18:58.647Z,803.31
2018-03-29T00:19:02.753Z,803.32
2018-03-29T00:19:06.856Z,803.34
2018-03-29T00:19:10.955Z,803.31
2018-03-29T00:19:14.727Z,803.3
2018-03-29T00:19:18.719Z,803.29
2018-03-29T00:19:22.819Z,803.3
2018-03-29T00:19:27.035Z,803.3
2018-03-29T00:19:31.026Z,803.3
2018-03-29T00:19:35.231Z,803.28
2018-03-29T00:19:39.433Z,803.3
2018-03-29T00:19:43.317Z,803.26
2018-03-29T00:19:47.529Z,803.29
2018-03-29T00:19:51.413Z,803.29
2018-03-29T00:19:55.721Z,803.25
2018-03-29T00:19:59.637Z,803.24
2018-03-29T00:20:04.150Z,803.27
2018-03-29T00:20:08.258Z,803.26
2018-03-29T00:20:12.474Z,803.29
2018-03-29T00:20:16.580Z,803.26
2018-03-29T00:20:20.572Z,803.29
2018-03-29T00:20:24.676Z,803.27
2018-03-29T00:20:28.555Z,803.25
2018-03-29T00:20:32.772Z,803.29
2018-03-29T00:20:36.991Z,803.28
2018-03-29T00:20:41.093Z,803.23
2018-03-29T00:20:45.193Z,803.22
2018-03-29T00:20:49.405Z,803.24
2018-03-29T00:20:53.396Z,803.22
2018-03-29T00:20:57.511Z,803.24
2018-03-29T00:21:01.717Z,803.27
2018-03-29T00:21:05.729Z,803.26
2018-03-29T00:21:09.937Z,803.27
2018-03-29T00:21:14.151Z,803.24
2018-03-29T00:21:18.272Z,803.26
2018-03-29T00:21:22.364Z,803.25
2018-03-29T00:21:26.575Z,803.28
2018-03-29T00:21:30.681Z,803.28
2018-03-29T00:21:34.888Z,803.28
2018-03-29T00:21:39.216Z,803.26
2018-03-29T00:21:43.308Z,803.27
2018-03-29T00:21:47.407Z,803.25
2018-03-29T00:21:51.613Z,803.22
2018-03-29T00:21:55.818Z,803.19
2018-03-29T00:22:00.132Z,803.24
2018-03-29T00:22:04.017Z,803.22
2018-03-29T00:22:08.017Z,803.22
2018-03-29T00:22:12.234Z,803.24
2018-03-29T00:22:16.558Z,803.25
2018-03-29T00:22:20.439Z,803.22
2018-03-29T00:22:24.660Z,803.23
2018-03-29T00:22:28.842Z,803.22
2018-03-29T00:22:32.946Z,803.22
2018-03-29T00:22:36.829Z,803.2
2018-03-29T00:22:41.146Z,803.17
2018-03-29T00:22:45.482Z,803.24
2018-03-29T00:22:49.800Z,803.18
2018-03-29T00:22:53.897Z,803.2
2018-03-29T00:22:57.890Z,803.23
2018-03-29T00:23:01.988Z,803.22
2018-03-29T00:23:05.873Z,803.22
2018-03-29T00:23:10.079Z,803.22
2018-03-29T00:23:14.173Z,803.22
2018-03-29T00:23:18.504Z,803.21
2018-03-29T00:23:22.600Z,803.21
2018-03-29T00:23:26.481Z,803.2
2018-03-29T00:23:30.589Z,803.22
2018-03-29T00:23:34.806Z,803.21
2018-03-29T00:23:39.017Z,803.2
2018-03-29T00:23:43.119Z,803.16
2018-03-29T00:23:47.221Z,803.19
2018-03-29T00:23:51.321Z,803.2
2018-03-29T00:23:55.201Z,803.22
2018-03-29T00:23:59.082Z,803.17
2018-03-29T00:24:02.965Z,803.2
2018-03-29T00:24:07.099Z,803.18
2018-03-29T00:24:10.984Z,803.22
2018-03-29T00:24:15.359Z,803.23
2018-03-29T00:24:19.578Z,803.19
2018-03-29T00:24:23.569Z,803.21
2018-03-29T00:24:27.448Z,803.2
2018-03-29T00:24:31.446Z,803.2
2018-03-29T00:24:35.552Z,803.15
2018-03-29T00:24:39.433Z,803.17
2018-03-29T00:24:43.638Z,803.19
2018-03-29T00:24:47.951Z,803.18
2018-03-29T00:24:52.058Z,803.2
2018-03-29T00:24:55.726Z,803.16
2018-03-29T00:24:59.718Z,803.15
2018-03-29T00:25:03.811Z,803.16
2018-03-29T00:25:07.813Z,803.16
2018-03-29T00:25:11.914Z,803.17
2018-03-29T00:25:16.170Z,803.2
2018-03-29T00:25:20.396Z,803.17
2018-03-29T00:25:24.589Z,803.17
2018-03-29T00:25:28.585Z,803.19
2018-03-29T00:25:32.793Z,803.17
2018-03-29T00:25:37.000Z,803.17
2018-03-29T00:25:41.207Z,803.15
2018-03-29T00:25:45.312Z,803.11
2018-03-29T00:25:49.200Z,803.15
2018-03-29T00:25:53.188Z,803.13
2018-03-29T00:25:57.183Z,803.12
2018-03-29T00:26:01.282Z,803.14
2018-03-29T00:26:05.485Z,803.11
2018-03-29T00:26:09.582Z,803.15
2018-03-29T00:26:13.677Z,803.11
2018-03-29T00:26:17.565Z,803.13
2018-03-29T00:26:21.555Z,803.08
2018-03-29T00:26:25.550Z,803.06
2018-03-29T00:26:29.661Z,803.05
2018-03-29T00:26:33.652Z,803.08
2018-03-29T00:26:37.968Z,803.05
2018-03-29T00:26:42.179Z,803.04
2018-03-29T00:26:46.504Z,803.08
2018-03-29T00:26:50.870Z,803.13
2018-03-29T00:26:55.187Z,803.09
2018-03-29T00:26:59.438Z,803.14
2018-03-29T00:27:03.655Z,803.05
2018-03-29T00:27:07.878Z,803.05
2018-03-29T00:27:11.874Z,803.04
2018-03-29T00:27:16.190Z,803.05
2018-03-29T00:27:20.183Z,803.05
2018-03-29T00:27:24.172Z,803.07
2018-03-29T00:27:28.280Z,803.09
2018-03-29T00:27:32.283Z,803.04
2018-03-29T00:27:36.488Z,803.07
2018-03-29T00:27:40.260Z,803.06
2018-03-29T00:27:44.522Z,803.06
2018-03-29T00:27:48.620Z,803.06
2018-03-29T00:27:52.501Z,803.05
2018-03-29T00:27:56.537Z,803.05
2018-03-29T00:28:00.423Z,803.06
2018-03-29T00:28:04.771Z,803.03
2018-03-29T00:28:08.763Z,803.03
2018-03-29T00:28:12.866Z,803.03
2018-03-29T00:28:16.640Z,803.08
2018-03-29T00:28:20.634Z,803.04
2018-03-29T00:28:24.621Z,803.03
2018-03-29T00:28:28.615Z,803
2018-03-29T00:28:32.728Z,802.97
2018-03-29T00:28:36.826Z,803.02
2018-03-29T00:28:41.027Z,803.02
2018-03-29T00:28:45.028Z,803.01
2018-03-29T00:28:49.359Z,803.01
2018-03-29T00:28:53.457Z,803.01
2018-03-29T00:28:57.341Z,803
2018-03-29T00:29:01.549Z,802.99
2018-03-29T00:29:05.800Z,802.98
2018-03-29T00:29:09.905Z,802.96
2018-03-29T00:29:14.002Z,802.97
2018-03-29T00:29:18.001Z,802.94
2018-03-29T00:29:21.991Z,802.97
2018-03-29T00:29:25.992Z,802.94
2018-03-29T00:29:30.094Z,802.96
2018-03-29T00:29:33.973Z,802.91
2018-03-29T00:29:37.856Z,802.92
2018-03-29T00:29:42.071Z,802.95
2018-03-29T00:29:46.181Z,802.92
2018-03-29T00:29:50.173Z,802.88
2018-03-29T00:29:54.379Z,802.89
2018-03-29T00:29:58.376Z,802.89
2018-03-29T00:30:02.892Z,802.89
2018-03-29T00:30:06.673Z,802.89
2018-03-29T00:30:10.778Z,802.86
2018-03-29T00:30:14.872Z,802.86
2018-03-29T00:30:18.969Z,802.87
2018-03-29T00:30:22.851Z,802.9
2018-03-29T00:30:26.953Z,802.86
2018-03-29T00:30:31.177Z,802.9
2018-03-29T00:30:35.174Z,802.87
2018-03-29T00:30:39.271Z,802.84
2018-03-29T00:30:43.583Z,802.86
2018-03-29T00:30:47.684Z,802.87
2018-03-29T00:30:51.675Z,802.9
2018-03-29T00:30:55.777Z,802.86
2018-03-29T00:30:59.770Z,802.84
2018-03-29T00:31:03.655Z,802.89
2018-03-29T00:31:07.752Z,802.9
2018-03-29T00:31:11.856Z,802.83
2018-03-29T00:31:15.738Z,802.84
2018-03-29T00:31:19.731Z,802.82
2018-03-29T00:31:23.829Z,802.82
2018-03-29T00:31:28.036Z,802.84
2018-03-29T00:31:32.135Z,802.86
2018-03-29T00:31:36.243Z,802.82
2018-03-29T00:31:40.351Z,802.83
2018-03-29T00:31:44.342Z,802.81
2018-03-29T00:31:48.440Z,802.85
2018-03-29T00:31:52.554Z,802.86
2018-03-29T00:31:56.871Z,802.85
2018-03-29T00:32:01.076Z,802.83
2018-03-29T00:32:05.177Z,802.87
2018-03-29T00:32:09.351Z,802.82
2018-03-29T00:32:13.344Z,802.86
2018-03-29T00:32:17.560Z,802.85
2018-03-29T00:32:21.880Z,802.83
2018-03-29T00:32:26.105Z,802.85
2018-03-29T00:32:30.202Z,802.85
2018-03-29T00:32:34.305Z,802.85
2018-03-29T00:32:38.403Z,802.8
2018-03-29T00:32:42.613Z,802.83
2018-03-29T00:32:46.823Z,802.8
2018-03-29T00:32:51.028Z,802.79
2018-03-29T00:32:55.252Z,802.83
2018-03-29T00:32:59.246Z,802.88
2018-03-29T00:33:03.443Z,802.83
2018-03-29T00:33:07.651Z,802.82
2018-03-29T00:33:11.553Z,802.86
2018-03-29T00:33:15.596Z,802.83
2018-03-29T00:33:19.804Z,802.83
2018-03-29T00:33:23.794Z,802.83
2018-03-29T00:33:28.113Z,802.82
2018-03-29T00:33:32.321Z,802.8
2018-03-29T00:33:36.641Z,802.81
2018-03-29T00:33:40.520Z,802.78
2018-03-29T00:33:44.398Z,802.8
2018-03-29T00:33:48.391Z,802.79
2018-03-29T00:33:52.391Z,802.79
2018-03-29T00:33:56.608Z,802.78
2018-03-29T00:34:00.603Z,802.81
2018-03-29T00:34:04.635Z,802.81
2018-03-29T00:34:08.629Z,802.81
2018-03-29T00:34:12.509Z,802.78
2018-03-29T00:34:16.835Z,802.8
2018-03-29T00:34:21.051Z,802.76
2018-03-29T00:34:25.040Z,802.76
2018-03-29T00:34:29.139Z,802.79
2018-03-29T00:34:33.135Z,802.75
2018-03-29T00:34:37.239Z,802.74
2018-03-29T00:34:41.449Z,802.75
2018-03-29T00:34:45.443Z,802.75
2018-03-29T00:34:49.436Z,802.76
2018-03-29T00:34:53.222Z,802.78
2018-03-29T00:34:57.103Z,802.74
2018-03-29T00:35:00.986Z,802.73
2018-03-29T00:35:05.442Z,802.74
2018-03-29T00:35:09.653Z,802.74
2018-03-29T00:35:13.535Z,802.66
2018-03-29T00:35:17.528Z,802.72
2018-03-29T00:35:21.728Z,802.7
2018-03-29T00:35:25.934Z,802.71
2018-03-29T00:35:30.131Z,802.7
2018-03-29T00:35:34.234Z,802.71
2018-03-29T00:35:38.334Z,802.73
2018-03-29T00:35:42.324Z,802.74
2018-03-29T00:35:46.421Z,802.74
2018-03-29T00:35:50.528Z,802.7
2018-03-29T00:35:54.631Z,802.74
2018-03-29T00:35:58.738Z,802.75
2018-03-29T00:36:02.944Z,802.76
2018-03-29T00:36:07.044Z,802.74
2018-03-29T00:36:11.261Z,802.74
2018-03-29T00:36:15.470Z,802.75
2018-03-29T00:36:19.677Z,802.74
2018-03-29T00:36:23.775Z,802.73
2018-03-29T00:36:27.983Z,802.73
2018-03-29T00:36:32.086Z,802.71
2018-03-29T00:36:36.408Z,802.71
2018-03-29T00:36:40.508Z,802.73
2018-03-29T00:36:44.603Z,802.72
2018-03-29T00:36:48.715Z,802.71
2018-03-29T00:36:52.802Z,802.74
2018-03-29T00:36:56.904Z,802.76
2018-03-29T00:37:01.000Z,802.7
2018-03-29T00:37:04.992Z,802.72
2018-03-29T00:37:09.097Z,802.68
2018-03-29T00:37:13.210Z,802.69
2018-03-29T00:37:17.422Z,802.72
2018-03-29T00:37:21.639Z,802.69
2018-03-29T00:37:25.739Z,802.71
2018-03-29T00:37:29.727Z,802.66
2018-03-29T00:37:33.725Z,802.7
2018-03-29T00:37:37.764Z,802.7
2018-03-29T00:37:41.751Z,802.69
2018-03-29T00:37:45.965Z,802.7
2018-03-29T00:37:50.182Z,802.72
2018-03-29T00:37:54.282Z,802.72
2018-03-29T00:37:58.379Z,802.63
2018-03-29T00:38:02.262Z,802.69
2018-03-29T00:38:06.361Z,802.66
2018-03-29T00:38:10.575Z,802.69
2018-03-29T00:38:14.675Z,802.69
2018-03-29T00:38:18.557Z,802.69
2018-03-29T00:38:22.766Z,802.7
2018-03-29T00:38:26.757Z,802.65
2018-03-29T00:38:30.855Z,802.64
2018-03-29T00:38:34.857Z,802.67
2018-03-29T00:38:39.062Z,802.7
2018-03-29T00:38:43.050Z,802.71
2018-03-29T00:38:46.932Z,802.68
2018-03-29T00:38:50.817Z,802.69
2018-03-29T00:38:54.803Z,802.7
2018-03-29T00:38:59.021Z,802.68
2018-03-29T00:39:03.062Z,802.66
2018-03-29T00:39:07.162Z,802.67
2018-03-29T00:39:11.265Z,802.68
2018-03-29T00:39:15.146Z,802.62
2018-03-29T00:39:19.250Z,802.61
2018-03-29T00:39:23.447Z,802.63
2018-03-29T00:39:27.334Z,802.67
2018-03-29T00:39:31.428Z,802.6
2018-03-29T00:39:35.202Z,802.66
2018-03-29T00:39:39.084Z,802.64
2018-03-29T00:39:42.976Z,802.62
2018-03-29T00:39:47.190Z,802.61
2018-03-29T00:39:51.186Z,802.6
2018-03-29T00:39:55.175Z,802.64
2018-03-29T00:39:59.169Z,802.61
2018-03-29T00:40:03.317Z,802.59
2018-03-29T00:40:07.311Z,802.66
2018-03-29T00:40:11.409Z,802.66
2018-03-29T00:40:15.505Z,802.63
2018-03-29T00:40:19.618Z,802.65
2018-03-29T00:40:23.930Z,802.65
2018-03-29T00:40:27.931Z,802.68
2018-03-29T00:40:31.811Z,802.66
2018-03-29T00:40:35.912Z,802.68
2018-03-29T00:40:40.147Z,802.67
2018-03-29T00:40:44.035Z,802.67
2018-03-29T00:40:47.926Z,802.68
2018-03-29T00:40:52.133Z,802.67
2018-03-29T00:40:56.121Z,802.69
2018-03-29T00:41:00.216Z,802.7
2018-03-29T00:41:04.727Z,802.67
2018-03-29T00:41:08.504Z,802.65
2018-03-29T00:41:12.824Z,802.65
2018-03-29T00:41:16.809Z,802.7
2018-03-29T00:41:20.692Z,802.67
2018-03-29T00:41:24.903Z,802.66
2018-03-29T00:41:29.117Z,802.65
2018-03-29T00:41:33.002Z,802.62
2018-03-29T00:41:37.214Z,802.61
2018-03-29T00:41:41.532Z,802.65
2018-03-29T00:41:45.422Z,802.67
2018-03-29T00:41:49.413Z,802.65
2018-03-29T00:41:53.513Z,802.67
2018-03-29T00:41:57.627Z,802.68
2018-03-29T00:42:01.731Z,802.7
2018-03-29T00:42:05.847Z,802.69
2018-03-29T00:42:09.837Z,802.67
2018-03-29T00:42:14.042Z,802.6
2018-03-29T00:42:18.363Z,802.61
2018-03-29T00:42:22.349Z,802.63
2018-03-29T00:42:26.338Z,802.68
2018-03-29T00:42:30.446Z,802.67
2018-03-29T00:42:34.661Z,802.63
2018-03-29T00:42:38.761Z,802.66
2018-03-29T00:42:42.859Z,802.66
2018-03-29T00:42:47.062Z,802.6
2018-03-29T00:42:51.054Z,802.61
2018-03-29T00:42:55.171Z,802.62
2018-03-29T00:42:59.376Z,802.6
2018-03-29T00:43:03.723Z,802.54
2018-03-29T00:43:07.388Z,802.55
2018-03-29T00:43:11.597Z,802.56
2018-03-29T00:43:15.695Z,802.55
2018-03-29T00:43:19.796Z,802.59
2018-03-29T00:43:23.790Z,802.59
2018-03-29T00:43:27.887Z,802.5
2018-03-29T00:43:31.886Z,802.55
2018-03-29T00:43:35.779Z,802.57
2018-03-29T00:43:39.993Z,802.56
2018-03-29T00:43:43.777Z,802.56
2018-03-29T00:43:48.034Z,802.56
2018-03-29T00:43:52.130Z,802.58
2018-03-29T00:43:56.123Z,802.59
2018-03-29T00:44:00.226Z,802.53
2018-03-29T00:44:04.108Z,802.6
2018-03-29T00:44:07.885Z,802.53
2018-03-29T00:44:11.889Z,802.51
2018-03-29T00:44:15.889Z,802.55
2018-03-29T00:44:20.209Z,802.54
2018-03-29T00:44:23.982Z,802.47
2018-03-29T00:44:28.015Z,802.45
2018-03-29T00:44:32.113Z,802.5
2018-03-29T00:44:36.003Z,802.46
2018-03-29T00:44:40.218Z,802.48
2018-03-29T00:44:44.207Z,802.48
2018-03-29T00:44:48.097Z,802.49
2018-03-29T00:44:51.978Z,802.45
2018-03-29T00:44:56.297Z,802.57
2018-03-29T00:45:00.299Z,802.55
2018-03-29T00:45:04.610Z,802.58
2018-03-29T00:45:08.823Z,802.53
2018-03-29T00:45:13.034Z,802.56
2018-03-29T00:45:17.352Z,802.58
2018-03-29T00:45:21.503Z,802.57
2018-03-29T00:45:25.493Z,802.54
2018-03-29T00:45:29.709Z,802.51
2018-03-29T00:45:33.804Z,802.47
2018-03-29T00:45:37.696Z,802.44
2018-03-29T00:45:41.795Z,802.53
2018-03-29T00:45:45.898Z,802.48
2018-03-29T00:45:49.883Z,802.5
2018-03-29T00:45:54.197Z,802.52
2018-03-29T00:45:58.200Z,802.45
2018-03-29T00:46:02.505Z,802.46
2018-03-29T00:46:06.601Z,802.44
2018-03-29T00:46:10.597Z,802.44
2018-03-29T00:46:14.589Z,802.48
2018-03-29T00:46:18.853Z,802.52
2018-03-29T00:46:22.948Z,802.55
2018-03-29T00:46:27.046Z,802.5
2018-03-29T00:46:31.148Z,802.48
2018-03-29T00:46:35.255Z,802.52
2018-03-29T00:46:39.459Z,802.49
2018-03-29T00:46:43.560Z,802.48
2018-03-29T00:46:47.772Z,802.48
2018-03-29T00:46:51.763Z,802.49
2018-03-29T00:46:55.656Z,802.47
2018-03-29T00:46:59.764Z,802.43
2018-03-29T00:47:03.875Z,802.44
2018-03-29T00:47:07.866Z,802.47
2018-03-29T00:47:12.078Z,802.48
2018-03-29T00:47:16.306Z,802.47
2018-03-29T00:47:20.403Z,802.45
2018-03-29T00:47:24.613Z,802.42
2018-03-29T00:47:28.506Z,802.44
2018-03-29T00:47:32.724Z,802.44
2018-03-29T00:47:36.826Z,802.45
2018-03-29T00:47:40.817Z,802.35
2018-03-29T00:47:44.807Z,802.36
2018-03-29T00:47:48.797Z,802.41
2018-03-29T00:47:52.998Z,802.43
2018-03-29T00:47:57.204Z,802.43
2018-03-29T00:48:01.771Z,802.42
2018-03-29T00:48:05.772Z,802.44
2018-03-29T00:48:09.983Z,802.43
2018-03-29T00:48:14.086Z,802.39
2018-03-29T00:48:18.299Z,802.43
2018-03-29T00:48:22.516Z,802.43
2018-03-29T00:48:26.619Z,802.44
2018-03-29T00:48:30.394Z,802.4
2018-03-29T00:48:34.497Z,802.42
2018-03-29T00:48:38.594Z,802.44
2018-03-29T00:48:42.698Z,802.35
2018-03-29T00:48:46.822Z,802.37
2018-03-29T00:48:51.034Z,802.4
2018-03-29T00:48:55.023Z,802.44
2018-03-29T00:48:59.129Z,802.41
2018-03-29T00:49:03.121Z,802.41
2018-03-29T00:49:07.105Z,802.38
2018-03-29T00:49:11.208Z,802.41
2018-03-29T00:49:15.447Z,802.4
2018-03-29T00:49:19.439Z,802.39
2018-03-29T00:49:23.536Z,802.4
2018-03-29T00:49:27.451Z,802.37
2018-03-29T00:49:31.446Z,802.39
2018-03-29T00:49:35.436Z,802.39
2018-03-29T00:49:39.429Z,802.38
2018-03-29T00:49:43.312Z,802.39
2018-03-29T00:49:47.521Z,802.39
2018-03-29T00:49:51.626Z,802.36
2018-03-29T00:49:55.619Z,802.37
2018-03-29T00:49:59.829Z,802.36
2018-03-29T00:50:03.932Z,802.39
2018-03-29T00:50:07.816Z,802.35
2018-03-29T00:50:11.802Z,802.34
2018-03-29T00:50:15.904Z,802.38
2018-03-29T00:50:20.228Z,802.36
2018-03-29T00:50:24.330Z,802.35
2018-03-29T00:50:28.433Z,802.35
2018-03-29T00:50:32.314Z,802.35
2018-03-29T00:50:36.311Z,802.34
2018-03-29T00:50:40.531Z,802.31
2018-03-29T00:50:44.414Z,802.31
2018-03-29T00:50:48.408Z,802.34
2018-03-29T00:50:52.406Z,802.3
2018-03-29T00:50:56.610Z,802.31
2018-03-29T00:51:00.934Z,802.25
2018-03-29T00:51:05.188Z,802.28
2018-03-29T00:51:09.291Z,802.28
2018-03-29T00:51:13.494Z,802.28
2018-03-29T00:51:17.485Z,802.29